Blaine, WA (98230)

5:23 PM PST on November 18, 2017 (GMT -0800)
Birch Bay - Near C Shop | | Change Station
Active Advisory: Wind Advisory

Elev 14 ft 48.92 °N, 122.74 °W | Updated 4 seconds ago

Mostly Cloudy
Mostly Cloudy
46.5 °F
Feels Like 46 °F
N
0.0
Wind Variable Wind from SSE

Today
High -- | Low -- °F
--% Chance of Precip.
Yesterday
High -- | Low -- °F
Precip. -- in
Pressure 30.12 in
Visibility 10.0 miles
Clouds Clear
Windchill 46 °F
Dew Point 40 °F
Humidity 78%
Rainfall 0.00 in
Snow Depth Not available.
7:25 AM 4:26 PM
New Moon, 0% visible
METAR KBLI 190053Z 14011KT 10SM CLR 10/03 A3010 RMK AO2 SLP200 T01000033
Pressure 30.12 in
Visibility 10.0 miles
Clouds Clear
Windchill 46 °F
Dew Point 40 °F
Humidity 78%
Rainfall 0.00 in
Snow Depth Not available.
7:25 AM 4:26 PM
New Moon, 0% visible
METAR KBLI 190053Z 14011KT 10SM CLR 10/03 A3010 RMK AO2 SLP200 T01000033

Get Your Daily Forecast Email!

Thanks for signing up!

Be on the lookout for a verification email in your inbox.

You'll start receiving severe weather alerts in your inbox..

×

10-Day Weather Forecast

Almanac

Astronomy

Nov. 18, 2017 Rise Set
Actual Time
Civil Twilight
Nautical Twilight
Astronomical Twilight
Moon
Length of Visible Light
Length of Day
Tomorrow will be .
, % of the Moon is Illuminated

Today's Extremes

State Highs State Lows

Community

WunderPhotos

Category 6

Welcome to Category 6. This is the collective home for Weather Underground's featured writeups by Dr. Jeff Masters (right), Bob Henson (left), Chris Burt, and other regular contributors.

Nearby

Air Quality

  Air Quality AQ Index Pollutant
Not available.

Snow Depth

Station Depth Elevation

Earthquake Activity

City Distance Mag. Time & Date
Minimum magnitude displayed is 2.5.

Coastal Water Temperatures

Place Temperature

Stations

Nearby Weather Stations

Station Location Temp. Windchill Dew Point Humidity Wind Precip. Elev Updated Type
                   

Watches & Warnings

Wind Advisory
Issued: 2:40 PM PST Nov. 18, 2017 – National Weather Service

... Wind Advisory in effect from 6 am to 3 PM PST Sunday...

The National Weather Service in Seattle has issued a Wind
Advisory, which is in effect from 6 am to 3 PM PST Sunday.

* Wind... south wind rising to 20 to 35 mph with gusts 45 to 55
mph on Sunday.

* Some affected locations... Whidbey Island and the San Juans.

* Timing... a strong front will move over the area on Sunday.

* Impacts... downed limbs and local power outages.

Precautionary/preparedness actions...

A Wind Advisory means that winds of 35 mph are expected. Winds
this strong can make driving difficult... especially for high
profile vehicles. Use extra caution.



Www.Weather.Gov/Seattle